Accueil
METAR-TAF:

METAR-TAF

Aéroports :

Caracas, Venezuela

Aéroport international Maiquetía - Simón Bolívar

latitude: 10-36N, longitude: 066-59W, altitude: 43 m

Observation

Le bulletin a été fait il y a 58 minutes, à 16:00 UTC
Vent 5 kt de nord-ouest
Température 32°C
Humidité 56%
Pression 1014 hPa
Visibilité 10 km ou plus
Quelques nuages à une hauteur de 1600 ft

METAR: SVMI 251600Z 31005KT 9999 FEW016 32/22 Q1014

Heure: 12:58 (16:58 UTC)

Prévision

Le bulletin a été fait il y a 6 heures et 58 minutes, à 10:00 UTC
Prévision valable du 25 à 12 UTC au 26 à 12 UTC
Vent kt de nord
Visibilité 10 km ou plus
Quelques nuages à une hauteur de 1000 ft
Nuages épars à une hauteur de 10000 ft
Evoluant progressivement
du 25 à 12 UTC au 25 à 16 UTC
Vent 5 kt de nord-est
Nuages épars à une hauteur de 1600 ft

TAF: SVMI 251000Z 2512/2612 00000KT 9999 FEW010 SCT100 TX31/18Z TN24/10Z BECMG 2512/2516 05005KT SCT016

Observations et prévisions météorologiques de plus de 4000 aéroports (messages METAR et TAF).

Les stations disponibles sont représentées par des disques jaunes et rouges sur la carte.

Passer la souris dessus pour voir le nom de la station.

Cliquer dessus pour voir les observations et prévisions météorologiques.

Pour changer de carte: cliquez sur les boutons verts avec une croix noire pour zoomer, sur le bouton vert avec un tiret pour effectuer un zoom arrière, ou sur les flèches vertes pour les cartes adjacentes.


METAR-TAF: